Araz River — UHYN — position and weather

sailwx.info

Track history (hours):
 
Tides and Currents Weather Stations Pressure Air Temp Water Temp Dewpoint Dewpoint Depression Visibility Wind Speed Wind Dir Waves Ship Positions

Araz River

Last reported at 2018-Feb-13 11:28 UTC. Time now 2018-Feb-21 22:55 UTC.
Position N 35°60' W 005°29'.
Warning: this ship's position is 8 days out of date.

Length 140 m; draft 3.2 m.

Type: Ship. MMSI: 273339920.

Date/timePositionNaut miles runAvg speedWind from/ knotsBaromVisibWave heightAir tempDewpointWater temp
2018-Feb-13 11:28N 35°60' W 005°29'3 6.9
2018-Feb-13 11:00N 36°01' W 005°25'3 6.0
2018-Feb-13 10:30N 36°01' W 005°21'3 5.1
2018-Feb-13 10:00N 36°02' W 005°18'222 4.7
2018-Feb-11 10:47N 37°17' W 000°58'3 5.9
2018-Feb-11 10:17N 37°19' W 000°55'2 6.1
2018-Feb-11 09:58N 37°20' W 000°53'3 6.1
2018-Feb-11 09:30N 37°22' W 000°51'3 6.2
2018-Feb-11 09:00N 37°25' W 000°48'3 6.2
2018-Feb-11 08:29N 37°27' W 000°45'3 6.2
2018-Feb-11 08:01N 37°29' W 000°42'3 6.2
2018-Feb-11 07:30N 37°31' W 000°39'3 6.2
2018-Feb-11 07:00N 37°33' W 000°36'3 6.1
2018-Feb-11 06:30N 37°35' W 000°33'3 6.1
2018-Feb-11 06:00N 37°37' W 000°31'3 5.9
2018-Feb-11 05:30N 37°40' W 000°29'3 5.7
2018-Feb-11 05:00N 37°42' W 000°27'3 5.8
2018-Feb-11 04:30N 37°45' W 000°25'  
Track history (hours):
 
Tides and Currents Weather Stations Pressure Air Temp Water Temp Dewpoint Dewpoint Depression Visibility Wind Speed Wind Dir Waves Ship Positions

Araz River

Last reported at 2018-Feb-13 11:28 UTC. Time now 2018-Feb-21 22:55 UTC.
Position N 35°60' W 005°29'.
Warning: this ship's position is 8 days out of date.

Length 140 m; draft 3.2 m.

Type: Ship. MMSI: 273339920.

Date/timePositionNaut miles runAvg speedWind from/ knotsBaromVisibWave heightAir tempDewpointWater temp
2018-Feb-13 11:28N 35°60' W 005°29'3 6.9
2018-Feb-13 11:00N 36°01' W 005°25'3 6.0
2018-Feb-13 10:30N 36°01' W 005°21'3 5.1
2018-Feb-13 10:00N 36°02' W 005°18'222 4.7
2018-Feb-11 10:47N 37°17' W 000°58'3 5.9
2018-Feb-11 10:17N 37°19' W 000°55'2 6.1
2018-Feb-11 09:58N 37°20' W 000°53'3 6.1
2018-Feb-11 09:30N 37°22' W 000°51'3 6.2
2018-Feb-11 09:00N 37°25' W 000°48'3 6.2
2018-Feb-11 08:29N 37°27' W 000°45'3 6.2
2018-Feb-11 08:01N 37°29' W 000°42'3 6.2
2018-Feb-11 07:30N 37°31' W 000°39'3 6.2
2018-Feb-11 07:00N 37°33' W 000°36'3 6.1
2018-Feb-11 06:30N 37°35' W 000°33'3 6.1
2018-Feb-11 06:00N 37°37' W 000°31'3 5.9
2018-Feb-11 05:30N 37°40' W 000°29'3 5.7
2018-Feb-11 05:00N 37°42' W 000°27'3 5.8
2018-Feb-11 04:30N 37°45' W 000°25'  

Dump ship's entire track history